createdAt,value
2023-04-03T00:01:39.635Z,8.77
2023-04-03T00:04:45.927Z,9.60
2023-04-03T00:07:52.115Z,11.47
2023-04-03T00:10:58.538Z,13.10
2023-04-03T00:14:05.919Z,12.13
2023-04-03T00:17:12.360Z,8.57
2023-04-03T00:20:18.599Z,10.57
2023-04-03T00:23:25.804Z,10.70
2023-04-03T00:26:31.928Z,11.30
2023-04-03T00:29:39.476Z,17.10
2023-04-03T00:32:45.933Z,38.53
2023-04-03T00:35:52.498Z,23.80
2023-04-03T00:38:59.042Z,22.77
2023-04-03T00:42:05.357Z,22.50
2023-04-03T00:45:35.087Z,16.87
2023-04-03T00:48:43.829Z,13.67
2023-04-03T00:51:50.224Z,10.97
2023-04-03T00:54:59.732Z,7.33
2023-04-03T00:58:08.017Z,10.60
2023-04-03T01:01:20.964Z,9.80
2023-04-03T01:04:32.707Z,8.80
2023-04-03T01:07:39.214Z,9.97
2023-04-03T01:10:46.138Z,8.97
2023-04-03T01:13:52.430Z,8.93
2023-04-03T01:17:00.573Z,8.10
2023-04-03T01:20:47.286Z,8.50
2023-04-03T01:24:08.478Z,6.57
2023-04-03T01:27:14.588Z,7.97
2023-04-03T01:30:24.703Z,8.90
2023-04-03T01:33:32.872Z,8.27
2023-04-03T01:36:38.800Z,8.87
2023-04-03T01:39:44.739Z,10.20
2023-04-03T01:42:50.626Z,9.67
2023-04-03T01:45:56.873Z,8.53
2023-04-03T01:49:04.872Z,10.17
2023-04-03T01:52:11.196Z,7.23
2023-04-03T01:55:17.771Z,9.00
2023-04-03T01:58:24.023Z,10.63
2023-04-03T02:01:30.432Z,9.63
2023-04-03T02:04:38.196Z,9.07
2023-04-03T02:07:44.608Z,5.37
2023-04-03T02:10:51.458Z,11.77
2023-04-03T02:13:57.906Z,10.43
2023-04-03T02:17:09.611Z,8.57
2023-04-03T02:20:17.254Z,7.53
2023-04-03T02:23:23.412Z,13.93
2023-04-03T02:26:29.794Z,7.20
2023-04-03T02:29:36.035Z,12.17
2023-04-03T02:32:42.420Z,15.53
2023-04-03T02:35:55.283Z,15.43
2023-04-03T02:39:02.813Z,15.30
2023-04-03T02:42:09.402Z,9.47
2023-04-03T02:45:15.897Z,8.77
2023-04-03T02:48:22.055Z,8.43
2023-04-03T02:51:29.709Z,15.07
2023-04-03T02:54:38.444Z,8.60
2023-04-03T02:57:44.867Z,11.93
2023-04-03T03:00:51.398Z,10.13
2023-04-03T03:03:57.337Z,7.17
2023-04-03T03:07:04.927Z,8.90
2023-04-03T03:10:11.719Z,6.13
2023-04-03T03:13:17.770Z,8.97
2023-04-03T03:16:24.098Z,10.03
2023-04-03T03:19:30.582Z,12.57
2023-04-03T03:22:38.361Z,12.97
2023-04-03T03:25:44.531Z,13.83
2023-04-03T03:28:50.908Z,16.10
2023-04-03T03:31:57.097Z,17.30
2023-04-03T03:35:02.988Z,21.10
2023-04-03T03:38:11.097Z,13.00
2023-04-03T03:41:17.181Z,19.23
2023-04-03T03:44:23.801Z,10.40
2023-04-03T03:47:30.134Z,10.30
2023-04-03T03:50:36.536Z,11.33
2023-04-03T03:53:44.416Z,9.57
2023-04-03T03:56:50.827Z,13.77
2023-04-03T03:59:57.171Z,19.67
2023-04-03T04:03:04.046Z,45.37
2023-04-03T04:06:10.588Z,37.87
2023-04-03T04:09:18.281Z,34.67
2023-04-03T04:12:24.349Z,30.30
2023-04-03T04:15:30.445Z,35.00
2023-04-03T04:18:36.793Z,33.83
2023-04-03T04:21:43.242Z,30.67
2023-04-03T04:24:50.514Z,34.67
2023-04-03T04:27:56.709Z,37.63
2023-04-03T04:31:02.946Z,47.00
2023-04-03T04:34:09.241Z,29.90
2023-04-03T04:37:15.630Z,44.33
2023-04-03T04:40:24.101Z,46.73
2023-04-03T04:43:30.185Z,58.37
2023-04-03T04:46:36.722Z,30.93
2023-04-03T04:50:01.715Z,34.37
2023-04-03T04:53:08.135Z,19.63
2023-04-03T04:56:15.992Z,41.97
2023-04-03T04:59:22.501Z,39.57
2023-04-03T05:02:28.806Z,32.77
2023-04-03T05:05:35.363Z,26.53
2023-04-03T05:08:41.736Z,31.33
2023-04-03T05:11:49.378Z,54.10
2023-04-03T05:14:55.639Z,31.60
2023-04-03T05:18:02.287Z,38.00
2023-04-03T05:21:08.369Z,45.57
2023-04-03T05:24:14.679Z,71.77
2023-04-03T05:27:22.350Z,91.67
2023-04-03T05:30:28.697Z,58.43
2023-04-03T05:33:34.684Z,69.17
2023-04-03T05:36:40.846Z,55.23
2023-04-03T05:39:47.390Z,68.10
2023-04-03T05:42:55.110Z,51.47
2023-04-03T05:46:01.610Z,44.60
2023-04-03T05:49:07.726Z,38.77
2023-04-03T05:52:22.828Z,33.17
2023-04-03T05:55:29.194Z,28.87
2023-04-03T05:58:36.825Z,30.90
2023-04-03T06:01:43.437Z,187.80
2023-04-03T06:04:50.213Z,192.07
2023-04-03T06:07:56.852Z,197.07
2023-04-03T06:11:03.375Z,56.40
2023-04-03T06:14:11.326Z,41.20
2023-04-03T06:17:19.178Z,42.97
2023-04-03T06:20:25.704Z,36.73
2023-04-03T06:23:32.103Z,32.57
2023-04-03T06:26:38.399Z,38.60
2023-04-03T06:29:46.564Z,49.20
2023-04-03T06:32:54.909Z,50.63
2023-04-03T06:36:01.716Z,34.63
2023-04-03T06:39:08.662Z,38.83
2023-04-03T06:42:14.835Z,57.83
2023-04-03T06:45:22.831Z,55.33
2023-04-03T06:48:29.199Z,44.50
2023-04-03T06:51:35.165Z,31.47
2023-04-03T06:54:41.883Z,34.10
2023-04-03T06:57:48.508Z,52.97
2023-04-03T07:00:56.080Z,57.50
2023-04-03T07:04:02.490Z,55.30
2023-04-03T07:07:08.684Z,60.03
2023-04-03T07:10:14.818Z,59.10
2023-04-03T07:13:20.917Z,50.57
2023-04-03T07:16:28.114Z,41.87
2023-04-03T07:19:34.433Z,41.57
2023-04-03T07:22:40.323Z,25.70
2023-04-03T07:25:47.336Z,25.70
2023-04-03T07:28:53.730Z,22.83
2023-04-03T07:32:01.792Z,35.87
2023-04-03T07:35:08.266Z,34.10
2023-04-03T07:38:14.609Z,30.03
2023-04-03T07:41:23.675Z,35.53
2023-04-03T07:44:30.260Z,32.03
2023-04-03T07:47:38.190Z,50.80
2023-04-03T07:50:44.954Z,58.30
2023-04-03T07:53:51.491Z,56.57
2023-04-03T07:56:58.255Z,50.00
2023-04-03T08:00:06.034Z,59.00
2023-04-03T08:03:14.969Z,51.47
2023-04-03T08:06:29.293Z,51.10
2023-04-03T08:09:35.960Z,50.80
2023-04-03T08:12:42.588Z,47.50
2023-04-03T08:15:49.139Z,24.93
2023-04-03T08:18:57.338Z,28.17
2023-04-03T08:22:04.434Z,16.90
2023-04-03T08:25:11.746Z,17.53
2023-04-03T08:28:18.121Z,18.13
2023-04-03T08:31:24.410Z,21.07
2023-04-03T08:34:32.154Z,23.37
2023-04-03T08:37:38.993Z,23.30
2023-04-03T08:40:47.882Z,18.23
2023-04-03T08:44:05.104Z,21.57
2023-04-03T08:47:25.420Z,17.83
2023-04-03T08:50:38.480Z,22.47
2023-04-03T08:53:51.105Z,15.17
2023-04-03T08:56:58.044Z,17.67
2023-04-03T09:00:08.961Z,27.13
2023-04-03T09:03:17.500Z,29.50
2023-04-03T09:06:30.249Z,24.33
2023-04-03T09:09:42.332Z,19.03
2023-04-03T09:12:55.876Z,29.00
2023-04-03T09:16:06.399Z,24.30
2023-04-03T09:19:22.008Z,23.00
2023-04-03T09:22:36.515Z,22.80
2023-04-03T09:25:46.154Z,30.90
2023-04-03T09:28:53.059Z,30.40
2023-04-03T09:32:02.583Z,33.40
2023-04-03T09:35:25.255Z,25.53
2023-04-03T09:38:40.522Z,34.20
2023-04-03T09:42:00.645Z,28.63
2023-04-03T09:45:08.463Z,27.30
2023-04-03T09:48:20.356Z,41.10
2023-04-03T09:51:29.480Z,65.23
2023-04-03T09:54:42.155Z,38.83
2023-04-03T09:57:52.130Z,40.77
2023-04-03T10:01:01.202Z,40.23
2023-04-03T10:04:12.948Z,35.43
2023-04-03T10:07:31.839Z,35.73
2023-04-03T10:10:40.657Z,31.40
2023-04-03T10:13:56.389Z,24.23
2023-04-03T10:17:15.593Z,25.23
2023-04-03T10:20:32.896Z,22.17
2023-04-03T10:23:46.289Z,16.67
2023-04-03T10:27:01.408Z,10.90
2023-04-03T10:30:22.999Z,15.90
2023-04-03T10:33:39.753Z,24.20
2023-04-03T10:36:53.140Z,22.13
2023-04-03T10:40:03.671Z,13.73
2023-04-03T10:43:17.735Z,21.93
2023-04-03T10:46:30.053Z,23.80
2023-04-03T10:49:59.427Z,11.80
2023-04-03T10:53:15.845Z,22.03
2023-04-03T10:56:28.317Z,12.27
2023-04-03T10:59:39.370Z,23.83
2023-04-03T11:02:53.448Z,43.43
2023-04-03T11:06:02.723Z,27.77
2023-04-03T11:09:21.998Z,22.33
2023-04-03T11:12:36.789Z,12.53
2023-04-03T11:15:46.304Z,10.70
2023-04-03T11:18:56.862Z,19.53
2023-04-03T11:22:08.334Z,48.90
2023-04-03T11:25:22.777Z,78.37
2023-04-03T11:28:29.094Z,56.37
2023-04-03T11:32:03.540Z,70.33
2023-04-03T11:35:11.096Z,59.43
2023-04-03T11:38:25.754Z,44.33
2023-04-03T11:41:34.012Z,38.83
2023-04-03T11:44:40.774Z,39.23
2023-04-03T11:47:51.899Z,14.63
2023-04-03T11:50:59.057Z,12.37
2023-04-03T11:54:44.419Z,16.77
2023-04-03T11:58:12.953Z,33.07
2023-04-03T12:01:46.980Z,21.77
2023-04-03T12:05:26.262Z,23.00
2023-04-03T12:08:47.128Z,70.87
2023-04-03T12:11:55.133Z,81.70
2023-04-03T12:15:26.352Z,68.87
2023-04-03T12:19:01.261Z,49.17
2023-04-03T12:22:16.907Z,49.00
2023-04-03T12:25:51.599Z,41.73
2023-04-03T12:28:58.366Z,39.97
2023-04-03T12:32:15.961Z,30.37
2023-04-03T12:35:30.337Z,40.40
2023-04-03T12:39:17.757Z,35.53
2023-04-03T12:42:42.974Z,25.50
2023-04-03T12:45:56.211Z,98.00
2023-04-03T12:49:02.644Z,35.87
2023-04-03T12:52:22.126Z,41.13
2023-04-03T12:55:29.037Z,29.53
2023-04-03T12:58:36.780Z,26.47
2023-04-03T13:01:42.938Z,48.83
2023-04-03T13:04:49.688Z,40.33
2023-04-03T13:08:03.039Z,34.47
2023-04-03T13:11:13.836Z,203.20
2023-04-03T13:14:23.436Z,63.40
2023-04-03T13:17:30.647Z,32.53
2023-04-03T13:20:38.885Z,34.40
2023-04-03T13:23:51.547Z,40.70
2023-04-03T13:26:59.945Z,34.57
2023-04-03T13:30:09.469Z,48.80
2023-04-03T13:33:24.483Z,36.03
2023-04-03T13:36:34.049Z,38.17
2023-04-03T13:39:41.969Z,27.47
2023-04-03T13:42:49.119Z,46.33
2023-04-03T13:46:01.555Z,58.63
2023-04-03T13:49:21.308Z,69.67
2023-04-03T13:52:32.071Z,44.27
2023-04-03T13:55:54.026Z,49.00
2023-04-03T13:59:06.989Z,52.20
2023-04-03T14:02:21.510Z,41.30
2023-04-03T14:05:27.920Z,60.10
2023-04-03T14:08:42.384Z,47.23
2023-04-03T14:11:54.562Z,29.97
2023-04-03T14:15:02.369Z,40.50
2023-04-03T14:18:14.134Z,34.90
2023-04-03T14:21:22.419Z,60.93
2023-04-03T14:24:29.300Z,53.03
2023-04-03T14:27:38.939Z,48.80
2023-04-03T14:30:45.141Z,151.07
2023-04-03T14:33:52.835Z,69.60
2023-04-03T14:36:59.133Z,67.77
2023-04-03T14:40:07.106Z,76.47
2023-04-03T14:43:15.154Z,95.57
2023-04-03T14:46:28.355Z,89.53
2023-04-03T14:49:40.219Z,87.53
2023-04-03T14:52:47.693Z,114.90
2023-04-03T14:55:54.143Z,106.30
2023-04-03T14:59:04.560Z,85.87
2023-04-03T15:02:31.465Z,64.00
2023-04-03T15:05:39.572Z,50.70
2023-04-03T15:08:47.897Z,50.73
2023-04-03T15:11:56.666Z,69.57
2023-04-03T15:15:03.793Z,81.87
2023-04-03T15:18:16.656Z,56.33
2023-04-03T15:21:24.339Z,61.97
2023-04-03T15:24:30.861Z,84.27
2023-04-03T15:27:37.576Z,122.27
2023-04-03T15:30:43.981Z,102.90
2023-04-03T15:33:50.456Z,68.93
2023-04-03T15:36:57.834Z,63.97
2023-04-03T15:40:05.004Z,54.30
2023-04-03T15:43:12.061Z,34.23
2023-04-03T15:46:18.486Z,36.13
2023-04-03T15:49:25.050Z,41.57
2023-04-03T15:52:32.441Z,52.03
2023-04-03T15:55:40.634Z,70.73
2023-04-03T15:58:46.825Z,76.47
2023-04-03T16:01:53.702Z,78.53
2023-04-03T16:05:00.119Z,115.37
2023-04-03T16:08:09.056Z,102.60
2023-04-03T16:11:15.028Z,90.57
2023-04-03T16:14:21.329Z,97.30
2023-04-03T16:17:29.310Z,122.93
2023-04-03T16:20:37.087Z,135.90
2023-04-03T16:23:45.825Z,116.47
2023-04-03T16:26:52.329Z,127.83
2023-04-03T16:29:58.520Z,80.40
2023-04-03T16:33:05.395Z,135.30
2023-04-03T16:36:11.802Z,89.00
2023-04-03T16:39:19.718Z,105.27
2023-04-03T16:42:26.123Z,99.43
2023-04-03T16:45:32.369Z,73.70
2023-04-03T16:48:38.818Z,83.13
2023-04-03T16:51:45.285Z,78.67
2023-04-03T16:54:56.699Z,105.20
2023-04-03T16:58:03.230Z,94.03
2023-04-03T17:01:14.272Z,85.63
2023-04-03T17:04:20.577Z,101.70
2023-04-03T17:07:28.218Z,64.87
2023-04-03T17:10:36.544Z,54.73
2023-04-03T17:13:43.110Z,58.17
2023-04-03T17:16:49.383Z,53.53
2023-04-03T17:19:57.040Z,74.87
2023-04-03T17:23:03.585Z,68.93
2023-04-03T17:26:11.433Z,63.00
2023-04-03T17:29:17.644Z,52.40
2023-04-03T17:32:26.570Z,100.37
2023-04-03T17:35:33.180Z,68.47
2023-04-03T17:38:39.414Z,80.07
2023-04-03T17:41:47.670Z,94.67
2023-04-03T17:44:54.209Z,52.23
2023-04-03T17:48:00.992Z,63.73
2023-04-03T17:51:08.295Z,37.87
2023-04-03T17:54:14.921Z,24.60
2023-04-03T17:57:22.664Z,32.13
2023-04-03T18:00:29.242Z,88.43
2023-04-03T18:03:35.816Z,53.40
2023-04-03T18:06:45.855Z,41.40
2023-04-03T18:09:53.909Z,65.93
2023-04-03T18:13:01.855Z,65.57
2023-04-03T18:16:09.938Z,78.13
2023-04-03T18:22:26.714Z,73.90
2023-04-03T18:28:49.631Z,33.87
2023-04-03T18:31:58.047Z,65.40
2023-04-03T18:35:04.449Z,49.47
2023-04-03T18:38:10.601Z,35.70
2023-04-03T18:41:16.843Z,31.93
2023-04-03T18:44:26.323Z,23.60
2023-04-03T18:47:33.399Z,21.93
2023-04-03T18:50:39.739Z,15.90
2023-04-03T18:53:45.861Z,27.13
2023-04-03T18:56:52.046Z,45.80
2023-04-03T18:59:59.557Z,36.60
2023-04-03T19:03:06.353Z,23.80
2023-04-03T19:06:13.174Z,29.40
2023-04-03T19:09:19.536Z,23.47
2023-04-03T19:12:26.148Z,23.03
2023-04-03T19:15:33.884Z,71.27
2023-04-03T19:18:40.091Z,34.67
2023-04-03T19:21:46.711Z,34.53
2023-04-03T19:24:53.122Z,23.27
2023-04-03T19:27:59.814Z,44.93
2023-04-03T19:31:15.136Z,33.70
2023-04-03T19:34:21.372Z,21.57
2023-04-03T19:37:27.669Z,20.67
2023-04-03T19:40:35.649Z,17.80
2023-04-03T19:43:42.832Z,16.60
2023-04-03T19:46:50.981Z,9.63
2023-04-03T19:49:58.078Z,16.67
2023-04-03T19:53:04.264Z,9.13
2023-04-03T19:56:11.066Z,12.43
2023-04-03T19:59:17.934Z,12.40
2023-04-03T20:02:25.692Z,5.60
2023-04-03T20:05:32.422Z,12.20
2023-04-03T20:08:38.452Z,19.03
2023-04-03T20:11:47.385Z,6.13
2023-04-03T20:14:53.887Z,7.20
2023-04-03T20:18:01.575Z,17.53
2023-04-03T20:21:08.772Z,16.87
2023-04-03T20:24:16.455Z,129.77
2023-04-03T20:27:24.625Z,45.83
2023-04-03T20:30:30.965Z,26.27
2023-04-03T20:33:39.146Z,14.10
2023-04-03T20:36:49.646Z,13.33
2023-04-03T20:39:56.252Z,16.13
2023-04-03T20:43:03.334Z,16.90
2023-04-03T20:46:09.485Z,21.70
2023-04-03T20:49:17.144Z,35.63
2023-04-03T20:52:23.140Z,16.93
2023-04-03T20:55:29.428Z,19.90
2023-04-03T20:58:38.450Z,19.63
2023-04-03T21:01:44.952Z,13.63
2023-04-03T21:04:55.390Z,10.73
2023-04-03T21:08:38.676Z,8.30
2023-04-03T21:12:22.037Z,8.00
2023-04-03T21:15:52.128Z,7.97
2023-04-03T21:19:09.397Z,7.33
2023-04-03T21:22:17.018Z,5.53
2023-04-03T21:25:23.298Z,6.30
2023-04-03T21:28:29.469Z,13.80
2023-04-03T21:31:53.883Z,6.17
2023-04-03T21:35:01.622Z,4.30
2023-04-03T21:38:07.947Z,7.43
2023-04-03T21:41:14.287Z,5.67
2023-04-03T21:44:20.606Z,4.37
2023-04-03T21:47:27.004Z,5.60
2023-04-03T21:50:34.752Z,5.80
2023-04-03T21:53:42.106Z,5.93
2023-04-03T21:56:49.760Z,7.30
2023-04-03T21:59:56.475Z,3.93
2023-04-03T22:03:10.108Z,6.33
2023-04-03T22:06:18.946Z,6.70
2023-04-03T22:09:25.335Z,4.27
2023-04-03T22:12:31.513Z,6.37
2023-04-03T22:15:42.947Z,6.63
2023-04-03T22:18:49.142Z,5.63
2023-04-03T22:21:56.689Z,6.57
2023-04-03T22:25:03.379Z,6.87
2023-04-03T22:28:09.645Z,5.40
2023-04-03T22:31:17.074Z,4.17
2023-04-03T22:34:23.435Z,2.93
2023-04-03T22:37:31.072Z,3.80
2023-04-03T22:40:37.769Z,3.50
2023-04-03T22:43:43.947Z,6.13
2023-04-03T22:46:49.836Z,4.53
2023-04-03T22:49:55.771Z,4.13
2023-04-03T22:53:03.125Z,4.97
2023-04-03T22:56:11.156Z,8.17
2023-04-03T22:59:17.301Z,8.27
2023-04-03T23:02:23.477Z,4.90
2023-04-03T23:05:30.474Z,3.10
2023-04-03T23:08:39.263Z,3.73
2023-04-03T23:11:45.664Z,4.30
2023-04-03T23:14:52.074Z,9.53
2023-04-03T23:17:58.414Z,7.87
2023-04-03T23:21:04.820Z,5.53
2023-04-03T23:24:13.032Z,13.50
2023-04-03T23:27:19.425Z,6.63
2023-04-03T23:30:25.782Z,6.67
2023-04-03T23:33:33.342Z,10.43
2023-04-03T23:36:39.954Z,4.53
2023-04-03T23:39:47.842Z,4.80
2023-04-03T23:42:53.897Z,5.60
2023-04-03T23:46:00.141Z,6.53
2023-04-03T23:49:06.144Z,6.77
2023-04-03T23:52:12.396Z,5.23
2023-04-03T23:55:20.084Z,5.10
2023-04-03T23:58:26.350Z,2.93
